sensor_id;sensor_type;location;lat;lon;timestamp;pressure;altitude;pressure_sealevel;temperature;humidity
46174;BME280;31897;52.420;13.498;2023-01-27T00:00:47;101800;;;-0.03219;35.98281
46174;BME280;31897;52.420;13.498;2023-01-27T00:03:49;101800;;;-0.02702;35.87939
46174;BME280;31897;52.420;13.498;2023-01-27T00:06:50;101800;;;-0.08581;35.85686
46174;BME280;31897;52.420;13.498;2023-01-27T00:09:50;101800;;;-0.12134;35.90306
46174;BME280;31897;52.420;13.498;2023-01-27T00:12:51;101800;;;-0.18013;36.12167
46174;BME280;31897;52.420;13.498;2023-01-27T00:15:52;101800;;;-0.08355;36.08655
46174;BME280;31897;52.420;13.498;2023-01-27T00:18:53;101800;;;-0.0506;35.97146
46174;BME280;31897;52.420;13.498;2023-01-27T00:21:53;101800;;;-0.03801;35.99434
46174;BME280;31897;52.420;13.498;2023-01-27T00:24:54;101800;;;-0.00571;35.92518
46174;BME280;31897;52.420;13.498;2023-01-27T00:27:55;101800;;;-0.05997;35.92558
46174;BME280;31897;52.420;13.498;2023-01-27T00:30:56;101800;;;-0.05997;35.98876
46174;BME280;31897;52.420;13.498;2023-01-27T00:33:58;101800;;;-0.04253;35.9714
46174;BME280;31897;52.420;13.498;2023-01-27T00:36:59;101800;;;-0.01378;36.06884
46174;BME280;31897;52.420;13.498;2023-01-27T00:39:59;101800;;;-0.04285;36.00586
46174;BME280;31897;52.420;13.498;2023-01-27T00:43:00;101800;;;-0.21017;36.09892
46174;BME280;31897;52.420;13.498;2023-01-27T00:46:01;101800;;;-0.32063;36.27186
46174;BME280;31897;52.420;13.498;2023-01-27T00:49:02;101800;;;-0.28026;36.24864
46174;BME280;31897;52.420;13.498;2023-01-27T00:52:03;101800;;;-0.30868;36.38656
46174;BME280;31897;52.420;13.498;2023-01-27T00:55:04;101800;;;-0.30384;36.39801
46174;BME280;31897;52.420;13.498;2023-01-27T00:58:04;101800;;;-0.34486;36.51304
46174;BME280;31897;52.420;13.498;2023-01-27T01:01:07;101800;;;-0.32128;36.46699
46174;BME280;31897;52.420;13.498;2023-01-27T01:04:08;101800;;;-0.27574;36.52411
46174;BME280;31897;52.420;13.498;2023-01-27T01:07:09;101800;;;-0.23601;36.39185
46174;BME280;31897;52.420;13.498;2023-01-27T01:10:10;101800;;;-0.18723;36.3571
46174;BME280;31897;52.420;13.498;2023-01-27T01:13:10;101800;;;-0.14072;36.37403
46174;BME280;31897;52.420;13.498;2023-01-27T01:16:12;101800;;;-0.07548;36.43105
46174;BME280;31897;52.420;13.498;2023-01-27T01:19:13;101800;;;-0.02832;36.1838
46174;BME280;31897;52.420;13.498;2023-01-27T01:22:13;101800;;;-0.0829;36.1612
46174;BME280;31897;52.420;13.498;2023-01-27T01:25:14;101800;;;-0.1039;36.29342
46174;BME280;31897;52.420;13.498;2023-01-27T01:28:15;101800;;;-0.09195;36.24166
46174;BME280;31897;52.420;13.498;2023-01-27T01:31:17;101800;;;-0.05836;36.23569
46174;BME280;31897;52.420;13.498;2023-01-27T01:34:18;101800;;;-0.05739;36.20123
46174;BME280;31897;52.420;13.498;2023-01-27T01:37:19;101900;;;-0.12651;36.37395
46174;BME280;31897;52.420;13.498;2023-01-27T01:40:20;101900;;;-0.11682;36.33943
46174;BME280;31897;52.420;13.498;2023-01-27T01:43:21;101900;;;-0.18465;36.37431
46174;BME280;31897;52.420;13.498;2023-01-27T01:46:22;101900;;;-0.15687;36.35117
46174;BME280;31897;52.420;13.498;2023-01-27T01:49:24;101800;;;-0.19499;36.36864
46174;BME280;31897;52.420;13.498;2023-01-27T01:52:26;101900;;;-0.17335;36.44313
46174;BME280;31897;52.420;13.498;2023-01-27T01:55:27;101900;;;-0.26411;36.36907
46174;BME280;31897;52.420;13.498;2023-01-27T01:58:28;101900;;;-0.3174;36.4727
46174;BME280;31897;52.420;13.498;2023-01-27T02:01:29;101900;;;-0.35294;36.67949
46174;BME280;31897;52.420;13.498;2023-01-27T02:04:31;101900;;;-0.36715;36.85744
46174;BME280;31897;52.420;13.498;2023-01-27T02:07:34;101900;;;-0.32548;36.75394
46174;BME280;31897;52.420;13.498;2023-01-27T02:10:39;101900;;;-0.3581;36.83444
46174;BME280;31897;52.420;13.498;2023-01-27T02:13:40;101900;;;-0.29027;36.81688
46174;BME280;31897;52.420;13.498;2023-01-27T02:16:41;101900;;;-0.24893;36.77649
46174;BME280;31897;52.420;13.498;2023-01-27T02:19:44;101900;;;-0.132;36.81605
46174;BME280;31897;52.420;13.498;2023-01-27T02:22:51;101900;;;-0.02896;36.68917
46174;BME280;31897;52.420;13.498;2023-01-27T02:25:56;101900;;;-0.0183;36.62595
46174;BME280;31897;52.420;13.498;2023-01-27T02:28:59;101900;;;-0.05965;36.64915
46174;BME280;31897;52.420;13.498;2023-01-27T02:32:07;101900;;;-0.09227;36.71249
46174;BME280;31897;52.420;13.498;2023-01-27T02:35:08;101900;;;-0.04867;36.60889
46174;BME280;31897;52.420;13.498;2023-01-27T02:38:10;101900;;;-0.00377;36.59715
46174;BME280;31897;52.420;13.498;2023-01-27T02:41:14;101900;;;-0.0141;36.60869
46174;BME280;31897;52.420;13.498;2023-01-27T02:44:16;101800;;;-0.00441;36.72923
46174;BME280;31897;52.420;13.498;2023-01-27T02:47:17;101900;;;0.02562;36.75204
46174;BME280;31897;52.420;13.498;2023-01-27T02:50:18;101900;;;0.00205;36.72346
46174;BME280;31897;52.420;13.498;2023-01-27T02:53:19;101900;;;-0.03607;36.64902
46174;BME280;31897;52.420;13.498;2023-01-27T02:56:20;101900;;;0.00075;36.72921
46174;BME280;31897;52.420;13.498;2023-01-27T02:59:21;101900;;;-0.0112;36.64887
46174;BME280;31897;52.420;13.498;2023-01-27T03:02:22;101900;;;-0.00668;36.7235
46174;BME280;31897;52.420;13.498;2023-01-27T03:05:23;101900;;;-0.01378;36.66612
46174;BME280;31897;52.420;13.498;2023-01-27T03:08:23;101900;;;-0.00861;36.71777
46174;BME280;31897;52.420;13.498;2023-01-27T03:11:24;101900;;;0.0547;36.69445
46174;BME280;31897;52.420;13.498;2023-01-27T03:14:25;101900;;;0.12673;36.64234
46174;BME280;31897;52.420;13.498;2023-01-27T03:17:26;101900;;;0.12382;36.61938
46174;BME280;31897;52.420;13.498;2023-01-27T03:20:27;101900;;;0.22298;36.42918
46174;BME280;31897;52.420;13.498;2023-01-27T03:23:27;101900;;;0.18842;36.48685
46174;BME280;31897;52.420;13.498;2023-01-27T03:26:28;101900;;;0.24236;36.521
46174;BME280;31897;52.420;13.498;2023-01-27T03:29:29;101900;;;0.31924;36.45156
46174;BME280;31897;52.420;13.498;2023-01-27T03:32:30;101900;;;0.37382;36.27877
46174;BME280;31897;52.420;13.498;2023-01-27T03:35:32;101900;;;0.42841;36.16342
46174;BME280;31897;52.420;13.498;2023-01-27T03:38:33;101900;;;0.40451;36.07735
46174;BME280;31897;52.420;13.498;2023-01-27T03:41:34;101900;;;0.35315;35.9685
46174;BME280;31897;52.420;13.498;2023-01-27T03:44:35;101900;;;0.34928;36.0605
46174;BME280;31897;52.420;13.498;2023-01-27T03:47:36;101900;;;0.35315;36.00874
46174;BME280;31897;52.420;13.498;2023-01-27T03:50:37;101900;;;0.285;36.05522
46174;BME280;31897;52.420;13.498;2023-01-27T03:53:37;101900;;;0.32117;36.02621
46174;BME280;31897;52.420;13.498;2023-01-27T03:56:38;101900;;;0.41;35.93933
46174;BME280;31897;52.420;13.498;2023-01-27T03:59:39;101900;;;0.4226;35.88173
46174;BME280;31897;52.420;13.498;2023-01-27T04:02:40;101900;;;0.44908;35.85278
46174;BME280;31897;52.420;13.498;2023-01-27T04:05:41;101900;;;0.47363;35.82384
46174;BME280;31897;52.420;13.498;2023-01-27T04:08:41;101900;;;0.43552;35.80114
46174;BME280;31897;52.420;13.498;2023-01-27T04:11:42;101900;;;0.44715;35.82405
46174;BME280;31897;52.420;13.498;2023-01-27T04:14:43;101900;;;0.49754;35.76614
46174;BME280;31897;52.420;13.498;2023-01-27T04:17:44;101900;;;0.56666;35.73108
46174;BME280;31897;52.420;13.498;2023-01-27T04:20:45;101900;;;0.5925;35.69061
46174;BME280;31897;52.420;13.498;2023-01-27T04:23:45;101900;;;0.61188;35.5754
46174;BME280;31897;52.420;13.498;2023-01-27T04:26:46;101900;;;0.60154;35.62726
46174;BME280;31897;52.420;13.498;2023-01-27T04:29:47;101900;;;0.55374;35.63341
46174;BME280;31897;52.420;13.498;2023-01-27T04:32:48;101900;;;0.49754;35.63962
46174;BME280;31897;52.420;13.498;2023-01-27T04:35:50;101900;;;0.43649;35.64588
46174;BME280;31897;52.420;13.498;2023-01-27T04:38:50;101900;;;0.44069;35.70334
46174;BME280;31897;52.420;13.498;2023-01-27T04:41:51;101900;;;0.49624;35.7604
46174;BME280;31897;52.420;13.498;2023-01-27T04:44:52;101900;;;0.52176;35.69694
46174;BME280;31897;52.420;13.498;2023-01-27T04:47:53;101900;;;0.55245;35.62767
46174;BME280;31897;52.420;13.498;2023-01-27T04:50:53;101900;;;0.56601;35.65056
46174;BME280;31897;52.420;13.498;2023-01-27T04:53:54;101900;;;0.53048;35.54157
46174;BME280;31897;52.420;13.498;2023-01-27T04:56:56;101900;;;0.56666;35.66781
46174;BME280;31897;52.420;13.498;2023-01-27T04:59:57;101900;;;0.67067;35.54613
46174;BME280;31897;52.420;13.498;2023-01-27T05:02:58;101900;;;0.69974;35.44231
46174;BME280;31897;52.420;13.498;2023-01-27T05:05:58;101900;;;0.71718;35.48244
46174;BME280;31897;52.420;13.498;2023-01-27T05:08:59;101900;;;0.74948;35.50518
46174;BME280;31897;52.420;13.498;2023-01-27T05:12:00;101900;;;0.7834;35.44158
46174;BME280;31897;52.420;13.498;2023-01-27T05:15:01;101900;;;0.79696;35.28606
46174;BME280;31897;52.420;13.498;2023-01-27T05:18:02;101900;;;0.84735;35.31438
46174;BME280;31897;52.420;13.498;2023-01-27T05:21:03;101900;;;0.84283;35.36047
46174;BME280;31897;52.420;13.498;2023-01-27T05:24:05;101900;;;0.87674;35.435
46174;BME280;31897;52.420;13.498;2023-01-27T05:27:06;101900;;;0.86867;35.36024
46174;BME280;31897;52.420;13.498;2023-01-27T05:30:07;101900;;;0.83637;35.37204
46174;BME280;31897;52.420;13.498;2023-01-27T05:33:08;101900;;;0.82797;35.44694
46174;BME280;31897;52.420;13.498;2023-01-27T05:36:10;101900;;;0.80859;35.29747
46174;BME280;31897;52.420;13.498;2023-01-27T05:39:11;101900;;;0.67325;35.49433
46174;BME280;31897;52.420;13.498;2023-01-27T05:42:12;101900;;;0.61414;35.63291
46174;BME280;31897;52.420;13.498;2023-01-27T05:45:13;101900;;;0.51239;35.72577
46174;BME280;31897;52.420;13.498;2023-01-27T05:48:14;101900;;;0.54696;35.7715
46174;BME280;31897;52.420;13.498;2023-01-27T05:51:15;101900;;;0.59508;35.66183
46174;BME280;31897;52.420;13.498;2023-01-27T05:54:17;101900;;;0.65613;35.66132
46174;BME280;31897;52.420;13.498;2023-01-27T05:57:18;101900;;;0.71556;35.64357
46174;BME280;31897;52.420;13.498;2023-01-27T06:00:19;101900;;;0.76983;35.72944
46174;BME280;31897;52.420;13.498;2023-01-27T06:03:20;101900;;;0.81021;35.60249
46174;BME280;31897;52.420;13.498;2023-01-27T06:06:22;101900;;;0.78372;35.67178
46174;BME280;31897;52.420;13.498;2023-01-27T06:09:23;101900;;;0.76305;35.74676
46174;BME280;31897;52.420;13.498;2023-01-27T06:12:24;101900;;;0.80245;35.72917
46174;BME280;31897;52.420;13.498;2023-01-27T06:15:24;101900;;;0.80084;35.64286
46174;BME280;31897;52.420;13.498;2023-01-27T06:18:25;101900;;;0.76886;35.76397
46174;BME280;31897;52.420;13.498;2023-01-27T06:21:26;101900;;;0.77371;35.83299
46174;BME280;31897;52.420;13.498;2023-01-27T06:24:27;101900;;;0.75949;35.79857
46174;BME280;31897;52.420;13.498;2023-01-27T06:27:27;101900;;;0.69715;35.96016
46174;BME280;31897;52.420;13.498;2023-01-27T06:30:28;101900;;;0.68229;36.05808
46174;BME280;31897;52.420;13.498;2023-01-27T06:33:29;101900;;;0.73882;36.09793
46174;BME280;31897;52.420;13.498;2023-01-27T06:36:30;101900;;;0.75982;35.93667
46174;BME280;31897;52.420;13.498;2023-01-27T06:39:31;101900;;;0.72622;36.05775
46174;BME280;31897;52.420;13.498;2023-01-27T06:42:31;101900;;;0.78372;36.11487
46174;BME280;31897;52.420;13.498;2023-01-27T06:45:32;101900;;;0.83217;36.01093
46174;BME280;31897;52.420;13.498;2023-01-27T06:48:33;101900;;;0.78533;35.85591
46174;BME280;31897;52.420;13.498;2023-01-27T06:51:34;101900;;;0.72396;36.16708
46174;BME280;31897;52.420;13.498;2023-01-27T06:54:34;102000;;;0.74367;36.29352
46174;BME280;31897;52.420;13.498;2023-01-27T06:57:35;102000;;;0.80471;36.31611
46174;BME280;31897;52.420;13.498;2023-01-27T07:00:37;102000;;;0.82086;36.22393
46174;BME280;31897;52.420;13.498;2023-01-27T07:03:38;102000;;;0.58701;36.36934
46174;BME280;31897;52.420;13.498;2023-01-27T07:06:39;102000;;;0.51207;36.52509
46174;BME280;31897;52.420;13.498;2023-01-27T07:09:40;102000;;;0.44941;36.84165
46174;BME280;31897;52.420;13.498;2023-01-27T07:12:40;102000;;;0.52887;36.93896
46174;BME280;31897;52.420;13.498;2023-01-27T07:15:41;102000;;;0.60897;36.94429
46174;BME280;31897;52.420;13.498;2023-01-27T07:18:42;102000;;;0.69651;36.93232
46174;BME280;31897;52.420;13.498;2023-01-27T07:21:43;102000;;;0.72816;36.8056
46174;BME280;31897;52.420;13.498;2023-01-27T07:24:43;102000;;;0.77177;36.88589
46174;BME280;31897;52.420;13.498;2023-01-27T07:27:44;102000;;;0.83314;36.97761
46174;BME280;31897;52.420;13.498;2023-01-27T07:30:45;102000;;;0.91098;36.83909
46174;BME280;31897;52.420;13.498;2023-01-27T07:33:46;102000;;;0.93101;36.87926
46174;BME280;31897;52.420;13.498;2023-01-27T07:36:46;102000;;;0.89774;36.95425
46174;BME280;31897;52.420;13.498;2023-01-27T07:39:47;102000;;;0.86221;36.95444
46174;BME280;31897;52.420;13.498;2023-01-27T07:42:48;102000;;;0.84961;37.08684
46174;BME280;31897;52.420;13.498;2023-01-27T07:45:51;102000;;;0.83669;37.15594
46174;BME280;31897;52.420;13.498;2023-01-27T07:48:52;102000;;;0.78695;37.27698
46174;BME280;31897;52.420;13.498;2023-01-27T07:51:53;102000;;;0.75271;37.35766
46174;BME280;31897;52.420;13.498;2023-01-27T07:54:54;102000;;;0.70361;37.58791
46174;BME280;31897;52.420;13.498;2023-01-27T07:57:54;102000;;;0.78824;37.70836
46174;BME280;31897;52.420;13.498;2023-01-27T08:00:55;102000;;;0.87028;37.54699
46174;BME280;31897;52.420;13.498;2023-01-27T08:03:56;102000;;;0.8916;37.62169
46174;BME280;31897;52.420;13.498;2023-01-27T08:06:57;102000;;;0.95104;37.71928
46174;BME280;31897;52.420;13.498;2023-01-27T08:09:57;102000;;;0.95911;37.6387
46174;BME280;31897;52.420;13.498;2023-01-27T08:12:58;102000;;;1.01531;37.73631
46174;BME280;31897;52.420;13.498;2023-01-27T08:15:59;102000;;;1.09704;37.64392
46174;BME280;31897;52.420;13.498;2023-01-27T08:19:00;102000;;;1.14;37.64951
46174;BME280;31897;52.420;13.498;2023-01-27T08:22:01;102000;;;1.03728;37.75925
46174;BME280;31897;52.420;13.498;2023-01-27T08:25:02;102000;;;1.09284;37.8166
46174;BME280;31897;52.420;13.498;2023-01-27T08:28:03;102000;;;1.16777;37.72424
46174;BME280;31897;52.420;13.498;2023-01-27T08:31:04;102000;;;1.15582;37.86243
46174;BME280;31897;52.420;13.498;2023-01-27T08:34:06;102000;;;1.24497;37.94848
46174;BME280;31897;52.420;13.498;2023-01-27T08:37:07;102000;;;1.33703;37.70633
46174;BME280;31897;52.420;13.498;2023-01-27T08:40:08;102000;;;1.28503;37.78138
46174;BME280;31897;52.420;13.498;2023-01-27T08:43:10;102000;;;1.32443;37.91944
46174;BME280;31897;52.420;13.498;2023-01-27T08:46:11;102000;;;1.30828;38.0001
46174;BME280;31897;52.420;13.498;2023-01-27T08:49:11;102000;;;1.38645;38.07472
46174;BME280;31897;52.420;13.498;2023-01-27T08:52:12;102000;;;1.46139;37.87866
46174;BME280;31897;52.420;13.498;2023-01-27T08:55:13;102000;;;1.45202;37.98237
46174;BME280;31897;52.420;13.498;2023-01-27T08:58:14;102000;;;1.54117;38.01664
46174;BME280;31897;52.420;13.498;2023-01-27T09:01:15;102000;;;1.57412;37.99349
46174;BME280;31897;52.420;13.498;2023-01-27T09:04:16;102000;;;1.609;37.93
46174;BME280;31897;52.420;13.498;2023-01-27T09:07:17;102000;;;1.67005;37.87216
46174;BME280;31897;52.420;13.498;2023-01-27T09:10:18;102000;;;1.63549;37.94719
46174;BME280;31897;52.420;13.498;2023-01-27T09:13:19;102000;;;1.74661;38.05632
46174;BME280;31897;52.420;13.498;2023-01-27T09:16:20;102000;;;1.79893;37.98122
46174;BME280;31897;52.420;13.498;2023-01-27T09:19:21;102000;;;1.85805;38.03291
46174;BME280;31897;52.420;13.498;2023-01-27T09:22:21;102000;;;2.02504;37.99775
46174;BME280;31897;52.420;13.498;2023-01-27T09:25:22;102000;;;2.17557;37.78953
46174;BME280;31897;52.420;13.498;2023-01-27T09:28:23;102000;;;2.22208;37.73741
46174;BME280;31897;52.420;13.498;2023-01-27T09:31:24;102100;;;2.15619;37.88768
46174;BME280;31897;52.420;13.498;2023-01-27T09:34:25;102100;;;2.1494;37.91078
46174;BME280;31897;52.420;13.498;2023-01-27T09:37:26;102100;;;2.16749;37.8761
46174;BME280;31897;52.420;13.498;2023-01-27T09:40:29;102100;;;2.24275;37.97968
46174;BME280;31897;52.420;13.498;2023-01-27T09:43:35;102100;;;2.21142;37.92786
46174;BME280;31897;52.420;13.498;2023-01-27T09:46:45;102100;;;2.16943;37.90494
46174;BME280;31897;52.420;13.498;2023-01-27T09:49:52;102100;;;2.19882;38.01446
46174;BME280;31897;52.420;13.498;2023-01-27T09:53:03;102100;;;2.28119;37.92184
46174;BME280;31897;52.420;13.498;2023-01-27T09:56:11;102100;;;2.2308;37.93356
46174;BME280;31897;52.420;13.498;2023-01-27T09:59:19;102100;;;2.23177;38.05473
46174;BME280;31897;52.420;13.498;2023-01-27T10:02:29;102100;;;2.30703;37.99677
46174;BME280;31897;52.420;13.498;2023-01-27T10:05:43;102100;;;2.30509;38.10065
46174;BME280;31897;52.420;13.498;2023-01-27T10:08:53;102100;;;2.4456;38.00204
46174;BME280;31897;52.420;13.498;2023-01-27T10:11:59;102100;;;2.55252;37.93814
46174;BME280;31897;52.420;13.498;2023-01-27T10:15:05;102100;;;2.56835;37.98428
46174;BME280;31897;52.420;13.498;2023-01-27T10:18:14;102100;;;2.57287;38.09397
46174;BME280;31897;52.420;13.498;2023-01-27T10:21:20;102100;;;2.56996;38.09398
46174;BME280;31897;52.420;13.498;2023-01-27T10:24:28;102100;;;2.58773;38.0535
46174;BME280;31897;52.420;13.498;2023-01-27T10:27:34;102100;;;2.61551;38.0303
46174;BME280;31897;52.420;13.498;2023-01-27T10:30:36;102100;;;2.70789;37.93177
46174;BME280;31897;52.420;13.498;2023-01-27T10:33:40;102100;;;2.75763;37.93735
46174;BME280;31897;52.420;13.498;2023-01-27T10:36:47;102100;;;2.73858;37.85655
46174;BME280;31897;52.420;13.498;2023-01-27T10:39:53;102100;;;2.85066;37.91388
46174;BME280;31897;52.420;13.498;2023-01-27T10:42:59;102100;;;2.89201;37.83281
46174;BME280;31897;52.420;13.498;2023-01-27T10:46:05;102100;;;2.99763;37.88439
46174;BME280;31897;52.420;13.498;2023-01-27T10:49:09;102100;;;3.09325;37.8204
46174;BME280;31897;52.420;13.498;2023-01-27T10:52:14;102100;;;3.04544;37.62982
46174;BME280;31897;52.420;13.498;2023-01-27T10:55:17;102100;;;2.98342;37.7515
46174;BME280;31897;52.420;13.498;2023-01-27T10:58:19;102100;;;2.99925;37.73987
46174;BME280;31897;52.420;13.498;2023-01-27T11:01:25;102100;;;3.05222;37.78011
46174;BME280;31897;52.420;13.498;2023-01-27T11:04:31;102100;;;3.13879;37.6583
46174;BME280;31897;52.420;13.498;2023-01-27T11:07:36;102100;;;3.21987;37.70997
46174;BME280;31897;52.420;13.498;2023-01-27T11:10:40;102100;;;3.3158;37.70374
46174;BME280;31897;52.420;13.498;2023-01-27T11:13:42;102100;;;3.3607;37.49525
46174;BME280;31897;52.420;13.498;2023-01-27T11:16:45;102100;;;3.35715;37.38534
46174;BME280;31897;52.420;13.498;2023-01-27T11:19:50;102100;;;3.435;37.36756
46174;BME280;31897;52.420;13.498;2023-01-27T11:22:55;102100;;;3.54095;37.28015
46174;BME280;31897;52.420;13.498;2023-01-27T11:25:59;102100;;;3.6091;37.21608
46174;BME280;31897;52.420;13.498;2023-01-27T11:29:07;102100;;;3.59489;37.12353
46174;BME280;31897;52.420;13.498;2023-01-27T11:32:12;102100;;;3.54676;37.0312
46174;BME280;31897;52.420;13.498;2023-01-27T11:35:16;102100;;;3.51769;37.124
46174;BME280;31897;52.420;13.498;2023-01-27T11:38:18;102100;;;3.43338;37.09557
46174;BME280;31897;52.420;13.498;2023-01-27T11:41:20;102100;;;3.45535;37.19382
46174;BME280;31897;52.420;13.498;2023-01-27T11:44:21;102100;;;3.42757;36.95091
46174;BME280;31897;52.420;13.498;2023-01-27T11:47:24;102100;;;3.34165;37.00932
46174;BME280;31897;52.420;13.498;2023-01-27T11:50:27;102100;;;3.19177;37.12016
46174;BME280;31897;52.420;13.498;2023-01-27T11:53:29;102100;;;3.30288;37.09057
46174;BME280;31897;52.420;13.498;2023-01-27T11:56:31;102100;;;3.32776;36.95733
46174;BME280;31897;52.420;13.498;2023-01-27T11:59:34;102100;;;3.35166;36.91089
46174;BME280;31897;52.420;13.498;2023-01-27T12:02:40;102100;;;3.34488;36.86464
46174;BME280;31897;52.420;13.498;2023-01-27T12:05:43;102100;;;3.42789;36.84094
46174;BME280;31897;52.420;13.498;2023-01-27T12:08:46;102100;;;3.39204;36.70807
46174;BME280;31897;52.420;13.498;2023-01-27T12:11:47;102100;;;3.44663;36.70769
46174;BME280;31897;52.420;13.498;2023-01-27T12:14:48;102100;;;3.42595;36.71362
46174;BME280;31897;52.420;13.498;2023-01-27T12:17:49;102100;;;3.4631;36.59759
46174;BME280;31897;52.420;13.498;2023-01-27T12:20:56;102100;;;3.46471;36.58021
46174;BME280;31897;52.420;13.498;2023-01-27T12:23:58;102100;;;3.49443;36.66683
46174;BME280;31897;52.420;13.498;2023-01-27T12:26:59;102100;;;3.48022;36.60326
46174;BME280;31897;52.420;13.498;2023-01-27T12:30:02;102100;;;3.31774;36.45975
46174;BME280;31897;52.420;13.498;2023-01-27T12:33:09;102100;;;3.23957;36.54712
46174;BME280;31897;52.420;13.498;2023-01-27T12:36:12;102100;;;3.31677;36.55813
46174;BME280;31897;52.420;13.498;2023-01-27T12:39:23;102100;;;3.40689;36.37226
46174;BME280;31897;52.420;13.498;2023-01-27T12:42:41;102100;;;3.3607;36.34946
46174;BME280;31897;52.420;13.498;2023-01-27T12:45:42;102100;;;3.40334;36.37807
46174;BME280;31897;52.420;13.498;2023-01-27T12:48:45;102100;;;3.41432;36.33168
46174;BME280;31897;52.420;13.498;2023-01-27T12:51:50;102100;;;3.31677;36.19933
46174;BME280;31897;52.420;13.498;2023-01-27T12:54:51;102100;;;3.31451;36.20514
46174;BME280;31897;52.420;13.498;2023-01-27T12:57:52;102100;;;3.16237;36.10222
46174;BME280;31897;52.420;13.498;2023-01-27T13:00:52;102100;;;3.06482;36.1088
46174;BME280;31897;52.420;13.498;2023-01-27T13:03:54;102100;;;3.02283;36.10336
46174;BME280;31897;52.420;13.498;2023-01-27T13:06:56;102100;;;3.00151;35.95316
46174;BME280;31897;52.420;13.498;2023-01-27T13:10:04;102100;;;2.96146;35.93615
46174;BME280;31897;52.420;13.498;2023-01-27T13:13:09;102100;;;2.99731;35.82017
46174;BME280;31897;52.420;13.498;2023-01-27T13:16:15;102100;;;2.8975;35.65913
46174;BME280;31897;52.420;13.498;2023-01-27T13:19:17;102100;;;2.7922;35.66588
46174;BME280;31897;52.420;13.498;2023-01-27T13:22:18;102100;;;2.76894;35.79327
46174;BME280;31897;52.420;13.498;2023-01-27T13:25:22;102100;;;2.78735;35.86248
46174;BME280;31897;52.420;13.498;2023-01-27T13:28:25;102100;;;2.91817;35.84978
46174;BME280;31897;52.420;13.498;2023-01-27T13:31:33;102100;;;2.90073;35.62441
46174;BME280;31897;52.420;13.498;2023-01-27T13:34:38;102100;;;2.89944;35.71116
46174;BME280;31897;52.420;13.498;2023-01-27T13:37:42;102100;;;2.93788;35.76286
46174;BME280;31897;52.420;13.498;2023-01-27T13:40:44;102100;;;2.98568;35.68725
46174;BME280;31897;52.420;13.498;2023-01-27T13:43:49;102100;;;3.05061;35.73293
46174;BME280;31897;52.420;13.498;2023-01-27T13:46:55;102100;;;3.04964;35.67509
46174;BME280;31897;52.420;13.498;2023-01-27T13:50:01;102100;;;2.93142;35.65882
46174;BME280;31897;52.420;13.498;2023-01-27T13:53:05;102100;;;2.84485;35.82729
46174;BME280;31897;52.420;13.498;2023-01-27T13:56:10;102100;;;2.85228;35.91974
46174;BME280;31897;52.420;13.498;2023-01-27T13:59:22;102100;;;2.8723;35.89066
46174;BME280;31897;52.420;13.498;2023-01-27T14:02:39;102100;;;2.8736;35.83861
46174;BME280;31897;52.420;13.498;2023-01-27T14:05:50;102100;;;2.88587;35.73441
46174;BME280;31897;52.420;13.498;2023-01-27T14:08:57;102100;;;2.81739;35.70612
46174;BME280;31897;52.420;13.498;2023-01-27T14:12:03;102100;;;2.71209;35.85735
46174;BME280;31897;52.420;13.498;2023-01-27T14:15:13;102100;;;2.62714;35.89853
46174;BME280;31897;52.420;13.498;2023-01-27T14:18:19;102100;;;2.60743;35.91026
46174;BME280;31897;52.420;13.498;2023-01-27T14:21:22;102100;;;2.64975;35.85788
46174;BME280;31897;52.420;13.498;2023-01-27T14:24:30;102100;;;2.64329;35.79437
46174;BME280;31897;52.420;13.498;2023-01-27T14:27:33;102100;;;2.71177;35.81111
46174;BME280;31897;52.420;13.498;2023-01-27T14:30:38;102100;;;2.73373;35.72999
46174;BME280;31897;52.420;13.498;2023-01-27T14:33:43;102100;;;2.76345;35.60833
46174;BME280;31897;52.420;13.498;2023-01-27T14:36:47;102100;;;2.74794;35.56222
46174;BME280;31897;52.420;13.498;2023-01-27T14:39:55;102100;;;2.70918;35.49321
46174;BME280;31897;52.420;13.498;2023-01-27T14:43:03;102100;;;2.6856;35.62638
46174;BME280;31897;52.420;13.498;2023-01-27T14:46:14;102100;;;2.77411;35.50416
46174;BME280;31897;52.420;13.498;2023-01-27T14:49:17;102100;;;2.84808;35.37046
46174;BME280;31897;52.420;13.498;2023-01-27T14:52:26;102100;;;2.88619;35.28335
46174;BME280;31897;52.420;13.498;2023-01-27T14:55:31;102100;;;2.88232;35.32386
46174;BME280;31897;52.420;13.498;2023-01-27T14:58:37;102100;;;2.86843;35.31822
46174;BME280;31897;52.420;13.498;2023-01-27T15:01:42;102100;;;2.84356;35.15655
46174;BME280;31897;52.420;13.498;2023-01-27T15:04:47;102100;;;2.78606;35.12244
46174;BME280;31897;52.420;13.498;2023-01-27T15:07:55;102100;;;2.69142;35.2506
46174;BME280;31897;52.420;13.498;2023-01-27T15:10:59;102100;;;2.70886;35.2273
46174;BME280;31897;52.420;13.498;2023-01-27T15:14:08;102100;;;2.73276;35.1519
46174;BME280;31897;52.420;13.498;2023-01-27T15:17:20;102100;;;2.73664;35.05935